createdAt,value
2018-12-24T00:00:22.231Z,0.00
2018-12-24T00:01:53.806Z,0.00
2018-12-24T00:03:25.377Z,0.00
2018-12-24T00:04:57.153Z,0.00
2018-12-24T00:06:28.527Z,0.00
2018-12-24T00:08:00.103Z,0.00
2018-12-24T00:09:31.678Z,0.00
2018-12-24T00:11:03.257Z,0.00
2018-12-24T00:12:34.828Z,0.00
2018-12-24T00:14:06.402Z,0.00
2018-12-24T00:15:37.978Z,0.00
2018-12-24T00:17:09.552Z,0.00
2018-12-24T00:18:41.127Z,0.00
2018-12-24T00:20:12.702Z,0.00
2018-12-24T00:21:44.277Z,0.00
2018-12-24T00:23:15.952Z,0.00
2018-12-24T00:24:47.427Z,0.00
2018-12-24T00:26:19.002Z,0.00
2018-12-24T00:27:50.578Z,0.00
2018-12-24T00:29:22.153Z,0.00
2018-12-24T00:30:53.727Z,0.00
2018-12-24T00:32:25.302Z,0.00
2018-12-24T00:33:56.879Z,0.00
2018-12-24T00:35:28.456Z,0.00
2018-12-24T00:37:00.027Z,0.00
2018-12-24T00:38:31.603Z,0.00
2018-12-24T00:40:03.177Z,0.00
2018-12-24T00:41:34.853Z,0.00
2018-12-24T00:43:06.328Z,0.00
2018-12-24T00:44:37.905Z,0.00
2018-12-24T00:46:09.489Z,0.00
2018-12-24T00:47:41.060Z,0.00
2018-12-24T00:49:12.628Z,0.00
2018-12-24T00:50:44.203Z,0.00
2018-12-24T00:52:15.779Z,0.00
2018-12-24T00:53:47.354Z,0.00
2018-12-24T00:55:18.927Z,0.00
2018-12-24T00:56:50.502Z,0.00
2018-12-24T00:58:22.076Z,0.00
2018-12-24T00:59:53.753Z,0.00
2018-12-24T01:01:25.225Z,0.00
2018-12-24T01:02:56.800Z,0.00
2018-12-24T01:04:28.375Z,0.00
2018-12-24T01:05:59.949Z,0.00
2018-12-24T01:07:31.534Z,0.00
2018-12-24T01:09:03.101Z,0.00
2018-12-24T01:10:34.673Z,0.00
2018-12-24T01:12:06.248Z,0.00
2018-12-24T01:13:37.836Z,0.00
2018-12-24T01:15:09.398Z,0.00
2018-12-24T01:16:40.972Z,0.00
2018-12-24T01:18:12.647Z,0.00
2018-12-24T01:19:44.122Z,0.00
2018-12-24T01:21:15.697Z,0.00
2018-12-24T01:22:47.357Z,0.00
2018-12-24T01:24:18.859Z,0.00
2018-12-24T01:25:50.420Z,0.00
2018-12-24T01:27:22.002Z,0.00
2018-12-24T01:28:53.569Z,0.00
2018-12-24T01:30:25.144Z,0.00
2018-12-24T01:31:56.718Z,0.00
2018-12-24T01:33:28.293Z,0.00
2018-12-24T01:34:59.867Z,0.00
2018-12-24T01:36:31.542Z,0.00
2018-12-24T01:38:03.017Z,0.00
2018-12-24T01:39:34.690Z,0.00
2018-12-24T01:41:06.168Z,0.00
2018-12-24T01:42:37.740Z,0.00
2018-12-24T01:44:09.314Z,0.00
2018-12-24T01:45:40.889Z,0.00
2018-12-24T01:47:12.468Z,0.00
2018-12-24T01:48:44.038Z,0.00
2018-12-24T01:50:15.612Z,0.00
2018-12-24T01:51:47.237Z,0.00
2018-12-24T01:53:18.762Z,0.00
2018-12-24T01:54:50.887Z,0.00
2018-12-24T01:56:21.910Z,0.00
2018-12-24T01:57:53.485Z,0.00
2018-12-24T01:59:25.069Z,0.00
2018-12-24T02:00:56.643Z,0.00
2018-12-24T02:02:28.211Z,0.00
2018-12-24T02:03:59.835Z,0.00
2018-12-24T02:05:31.360Z,0.00
2018-12-24T02:07:02.935Z,0.00
2018-12-24T02:08:34.509Z,0.00
2018-12-24T02:10:06.084Z,0.00
2018-12-24T02:11:37.658Z,0.00
2018-12-24T02:13:09.334Z,0.00
2018-12-24T02:14:40.809Z,0.00
2018-12-24T02:16:12.388Z,0.00
2018-12-24T02:17:43.958Z,0.00
2018-12-24T02:19:15.533Z,0.00
2018-12-24T02:20:47.108Z,0.00
2018-12-24T02:22:18.683Z,0.00
2018-12-24T02:23:50.258Z,0.00
2018-12-24T02:25:21.833Z,0.00
2018-12-24T02:26:53.508Z,0.00
2018-12-24T02:28:24.982Z,0.00
2018-12-24T02:29:56.557Z,0.00
2018-12-24T02:31:28.232Z,0.00
2018-12-24T02:32:59.707Z,0.00
2018-12-24T02:34:31.286Z,0.00
2018-12-24T02:36:02.861Z,0.00
2018-12-24T02:37:34.431Z,0.00
2018-12-24T02:39:06.007Z,0.00
2018-12-24T02:40:37.581Z,0.00
2018-12-24T02:42:09.157Z,0.00
2018-12-24T02:43:40.730Z,0.00
2018-12-24T02:45:12.305Z,0.00
2018-12-24T02:46:43.881Z,0.00
2018-12-24T02:48:15.454Z,0.00
2018-12-24T02:49:47.129Z,0.00
2018-12-24T02:51:18.604Z,0.00
2018-12-24T02:52:50.182Z,0.00
2018-12-24T02:54:21.759Z,0.00
2018-12-24T02:55:53.351Z,0.00
2018-12-24T02:57:24.902Z,0.00
2018-12-24T02:58:56.478Z,0.00
2018-12-24T03:00:28.057Z,0.00
2018-12-24T03:01:59.631Z,0.00
2018-12-24T03:03:31.200Z,0.00
2018-12-24T03:05:02.775Z,0.00
2018-12-24T03:06:34.350Z,0.00
2018-12-24T03:08:06.025Z,0.00
2018-12-24T03:09:37.499Z,0.00
2018-12-24T03:11:09.076Z,0.00
2018-12-24T03:12:40.649Z,0.00
2018-12-24T03:14:12.223Z,0.00
2018-12-24T03:15:43.798Z,0.00
2018-12-24T03:17:15.375Z,0.00
2018-12-24T03:18:46.946Z,0.00
2018-12-24T03:20:18.554Z,0.00
2018-12-24T03:21:50.097Z,0.00
2018-12-24T03:23:21.670Z,0.00
2018-12-24T03:24:53.245Z,0.00
2018-12-24T03:26:24.921Z,0.00
2018-12-24T03:27:56.401Z,0.00
2018-12-24T03:29:27.977Z,0.00
2018-12-24T03:30:59.551Z,0.00
2018-12-24T03:32:31.120Z,0.00
2018-12-24T03:34:02.701Z,0.00
2018-12-24T03:35:34.269Z,0.00
2018-12-24T03:37:05.842Z,0.00
2018-12-24T03:38:37.416Z,0.00
2018-12-24T03:40:08.992Z,0.00
2018-12-24T03:41:40.566Z,0.00
2018-12-24T03:43:13.002Z,0.00
2018-12-24T03:44:43.815Z,0.00
2018-12-24T03:46:15.291Z,0.00
2018-12-24T03:47:46.866Z,0.00
2018-12-24T03:49:18.442Z,0.00
2018-12-24T03:50:50.014Z,0.00
2018-12-24T03:52:21.590Z,0.00
2018-12-24T03:53:53.164Z,0.00
2018-12-24T03:55:24.738Z,0.00
2018-12-24T03:56:56.313Z,0.00
2018-12-24T03:58:27.889Z,0.00
2018-12-24T03:59:59.463Z,0.00
2018-12-24T04:01:31.039Z,0.00
2018-12-24T04:03:02.716Z,0.00
2018-12-24T04:04:34.187Z,0.00
2018-12-24T04:06:05.762Z,0.00
2018-12-24T04:07:37.337Z,0.00
2018-12-24T04:09:08.915Z,0.00
2018-12-24T04:10:40.485Z,0.00
2018-12-24T04:12:12.060Z,0.00
2018-12-24T04:13:43.636Z,0.00
2018-12-24T04:15:15.210Z,0.00
2018-12-24T04:16:46.784Z,0.00
2018-12-24T04:18:18.366Z,0.00
2018-12-24T04:19:49.934Z,0.00
2018-12-24T04:21:22.870Z,0.00
2018-12-24T04:22:53.083Z,0.00
2018-12-24T04:24:24.658Z,0.00
2018-12-24T04:25:56.239Z,0.00
2018-12-24T04:27:27.807Z,0.00
2018-12-24T04:28:59.383Z,0.00
2018-12-24T04:30:30.969Z,0.00
2018-12-24T04:32:02.535Z,0.00
2018-12-24T04:33:34.106Z,0.00
2018-12-24T04:35:05.680Z,0.00
2018-12-24T04:36:37.255Z,0.00
2018-12-24T04:38:08.838Z,0.00
2018-12-24T04:39:40.504Z,0.00
2018-12-24T04:41:11.979Z,0.00
2018-12-24T04:42:43.553Z,0.00
2018-12-24T04:44:15.128Z,0.00
2018-12-24T04:45:46.705Z,0.00
2018-12-24T04:47:18.277Z,0.00
2018-12-24T04:48:49.852Z,0.00
2018-12-24T04:50:21.426Z,0.00
2018-12-24T04:51:53.002Z,0.00
2018-12-24T04:53:24.577Z,0.00
2018-12-24T04:54:56.150Z,0.00
2018-12-24T04:56:27.727Z,0.00
2018-12-24T04:57:59.399Z,0.00
2018-12-24T04:59:30.874Z,0.00
2018-12-24T05:01:02.451Z,0.00
2018-12-24T05:02:34.023Z,0.00
2018-12-24T05:04:05.600Z,0.00
2018-12-24T05:05:37.176Z,0.00
2018-12-24T05:07:08.747Z,0.00
2018-12-24T05:08:40.322Z,0.00
2018-12-24T05:10:11.895Z,0.00
2018-12-24T05:11:43.470Z,0.00
2018-12-24T05:13:15.046Z,0.00
2018-12-24T05:14:46.620Z,0.00
2018-12-24T05:16:18.294Z,0.00
2018-12-24T05:17:49.768Z,0.00
2018-12-24T05:19:21.343Z,0.00
2018-12-24T05:20:52.917Z,0.00
2018-12-24T05:22:24.633Z,0.00
2018-12-24T05:23:56.066Z,0.00
2018-12-24T05:25:27.641Z,0.00
2018-12-24T05:26:59.215Z,0.00
2018-12-24T05:28:30.792Z,0.00
2018-12-24T05:30:02.365Z,0.00
2018-12-24T05:31:33.938Z,0.00
2018-12-24T05:33:05.512Z,0.00
2018-12-24T05:34:37.258Z,0.00
2018-12-24T05:36:08.665Z,0.00
2018-12-24T05:37:40.235Z,0.00
2018-12-24T05:39:11.810Z,0.00
2018-12-24T05:40:43.384Z,0.00
2018-12-24T05:42:14.959Z,0.00
2018-12-24T05:43:49.536Z,0.00
2018-12-24T05:45:18.108Z,0.00
2018-12-24T05:46:49.683Z,0.00
2018-12-24T05:48:21.260Z,0.00
2018-12-24T05:49:52.831Z,0.00
2018-12-24T05:51:24.405Z,0.00
2018-12-24T05:52:56.079Z,0.00
2018-12-24T05:54:27.553Z,0.00
2018-12-24T05:55:59.128Z,0.00
2018-12-24T05:57:30.701Z,0.00
2018-12-24T05:59:02.276Z,0.00
2018-12-24T06:00:33.850Z,0.00
2018-12-24T06:02:05.424Z,0.00
2018-12-24T06:03:36.998Z,0.00
2018-12-24T06:05:08.575Z,0.00
2018-12-24T06:06:40.146Z,0.00
2018-12-24T06:08:11.719Z,0.00
2018-12-24T06:09:43.293Z,0.00
2018-12-24T06:11:14.968Z,0.00
2018-12-24T06:12:46.442Z,0.00
2018-12-24T06:14:18.016Z,0.00
2018-12-24T06:15:49.591Z,0.00
2018-12-24T06:17:21.166Z,0.00
2018-12-24T06:18:52.738Z,0.00
2018-12-24T06:20:24.312Z,0.00
2018-12-24T06:21:55.889Z,0.00
2018-12-24T06:23:27.461Z,0.00
2018-12-24T06:24:59.035Z,0.00
2018-12-24T06:26:30.609Z,0.00
2018-12-24T06:28:02.183Z,0.00
2018-12-24T06:29:33.857Z,0.00
2018-12-24T06:31:05.331Z,0.00
2018-12-24T06:32:36.906Z,0.00
2018-12-24T06:34:08.479Z,0.00
2018-12-24T06:35:40.053Z,0.00
2018-12-24T06:37:11.631Z,0.00
2018-12-24T06:38:43.203Z,0.00
2018-12-24T06:40:14.790Z,0.00
2018-12-24T06:41:46.351Z,0.00
2018-12-24T06:43:17.925Z,0.00
2018-12-24T06:44:49.501Z,0.00
2018-12-24T06:46:21.079Z,0.00
2018-12-24T06:47:52.748Z,0.00
2018-12-24T06:49:24.224Z,0.00
2018-12-24T06:50:55.797Z,0.00
2018-12-24T06:52:27.371Z,0.00
2018-12-24T06:53:58.979Z,0.00
2018-12-24T06:55:30.522Z,0.00
2018-12-24T06:57:02.094Z,0.00
2018-12-24T06:58:33.761Z,0.00
2018-12-24T07:00:05.298Z,0.00
2018-12-24T07:01:36.816Z,0.00
2018-12-24T07:03:08.391Z,0.00
2018-12-24T07:04:39.975Z,0.00
2018-12-24T07:06:11.840Z,0.00
2018-12-24T07:07:43.114Z,0.00
2018-12-24T07:09:14.689Z,0.00
2018-12-24T07:10:46.263Z,0.00
2018-12-24T07:12:17.840Z,0.00
2018-12-24T07:13:49.414Z,0.00
2018-12-24T07:15:21.019Z,0.00
2018-12-24T07:16:52.563Z,0.00
2018-12-24T07:18:24.136Z,0.00
2018-12-24T07:19:55.749Z,0.00
2018-12-24T07:21:27.285Z,0.00
2018-12-24T07:22:58.864Z,0.00
2018-12-24T07:24:30.563Z,0.00
2018-12-24T07:26:02.008Z,0.00
2018-12-24T07:27:33.584Z,0.00
2018-12-24T07:29:05.432Z,0.00
2018-12-24T07:30:36.734Z,0.00
2018-12-24T07:32:08.306Z,0.00
2018-12-24T07:33:39.913Z,0.00
2018-12-24T07:35:11.479Z,0.00
2018-12-24T07:36:43.031Z,0.00
2018-12-24T07:38:14.611Z,0.00
2018-12-24T07:39:46.179Z,0.00
2018-12-24T07:41:17.757Z,0.00
2018-12-24T07:42:49.428Z,0.00
2018-12-24T07:44:24.270Z,0.00
2018-12-24T07:45:52.477Z,0.00
2018-12-24T07:47:24.051Z,0.00
2018-12-24T07:48:55.672Z,0.00
2018-12-24T07:50:27.200Z,0.00
2018-12-24T07:51:58.775Z,0.00
2018-12-24T07:53:30.349Z,0.00
2018-12-24T07:55:01.923Z,0.00
2018-12-24T07:56:33.497Z,0.00
2018-12-24T07:58:05.158Z,0.00
2018-12-24T07:59:36.677Z,4.00
2018-12-24T08:01:08.320Z,4.00
2018-12-24T08:02:39.795Z,8.00
2018-12-24T08:04:11.370Z,8.00
2018-12-24T08:05:42.944Z,16.00
2018-12-24T08:07:14.520Z,24.00
2018-12-24T08:08:46.100Z,36.00
2018-12-24T08:10:17.668Z,44.00
2018-12-24T08:11:49.242Z,48.00
2018-12-24T08:13:20.867Z,60.00
2018-12-24T08:14:52.392Z,68.00
2018-12-24T08:16:23.966Z,84.00
2018-12-24T08:17:55.564Z,100.00
2018-12-24T08:19:27.215Z,124.00
2018-12-24T08:20:58.689Z,144.00
2018-12-24T08:22:30.264Z,164.00
2018-12-24T08:24:01.925Z,180.00
2018-12-24T08:25:33.415Z,212.00
2018-12-24T08:27:04.987Z,248.00
2018-12-24T08:28:36.599Z,288.00
2018-12-24T08:30:08.675Z,336.00
2018-12-24T08:31:39.742Z,388.00
2018-12-24T08:33:11.286Z,440.00
2018-12-24T08:34:42.860Z,496.00
2018-12-24T08:36:14.509Z,552.00
2018-12-24T08:37:46.110Z,612.00
2018-12-24T08:39:17.593Z,668.00
2018-12-24T08:40:49.168Z,720.00
2018-12-24T08:42:20.733Z,772.00
2018-12-24T08:43:52.345Z,828.00
2018-12-24T08:45:24.147Z,904.00
2018-12-24T08:46:55.697Z,996.00
2018-12-24T08:48:27.065Z,1084.00
2018-12-24T08:49:58.608Z,1144.00
2018-12-24T08:51:30.197Z,1132.00
2018-12-24T08:53:01.786Z,1044.00
2018-12-24T08:54:33.330Z,1024.00
2018-12-24T08:56:05.005Z,1132.00
2018-12-24T08:57:36.479Z,1384.00
2018-12-24T08:59:08.154Z,1656.00
2018-12-24T09:00:39.628Z,1840.00
2018-12-24T09:02:11.203Z,1988.00
2018-12-24T09:03:42.807Z,2132.00
2018-12-24T09:05:14.356Z,2212.00
2018-12-24T09:06:46.140Z,2268.00
2018-12-24T09:08:17.503Z,2376.00
2018-12-24T09:09:49.137Z,2604.00
2018-12-24T09:12:52.226Z,3388.00
2018-12-24T09:14:23.960Z,3856.00
2018-12-24T09:15:55.378Z,4212.00
2018-12-24T09:17:26.949Z,4208.00
2018-12-24T09:18:58.587Z,4472.00
2018-12-24T09:22:01.706Z,5172.00
2018-12-24T09:23:33.341Z,5472.00
2018-12-24T09:25:05.244Z,5836.00
2018-12-24T09:28:07.977Z,6572.00
2018-12-24T09:29:39.601Z,6924.00
2018-12-24T09:31:11.125Z,7216.00
2018-12-24T09:32:43.004Z,7552.00
2018-12-24T09:34:14.523Z,7832.00
2018-12-24T09:35:46.079Z,8084.00
2018-12-24T09:37:17.444Z,8340.00
2018-12-24T09:38:49.058Z,8468.00
2018-12-24T09:40:20.583Z,8592.00
2018-12-24T09:41:52.153Z,8688.00
2018-12-24T09:43:23.787Z,8660.00
2018-12-24T09:44:59.022Z,8460.00
2018-12-24T09:46:27.402Z,8572.00
2018-12-24T09:47:58.454Z,8928.00
2018-12-24T09:49:30.200Z,9672.00
2018-12-24T09:51:01.671Z,10848.00
2018-12-24T09:52:34.062Z,11960.00
2018-12-24T09:54:04.858Z,12876.00
2018-12-24T09:55:36.384Z,13820.00
2018-12-24T09:57:07.984Z,14684.00
2018-12-24T09:58:39.519Z,15092.00
2018-12-24T10:00:11.061Z,15188.00
2018-12-24T10:01:42.670Z,15548.00
2018-12-24T10:03:14.804Z,15700.00
2018-12-24T10:04:45.809Z,16176.00
2018-12-24T10:07:49.329Z,16320.00
2018-12-24T10:09:21.357Z,16996.00
2018-12-24T10:12:23.812Z,18272.00
2018-12-24T10:13:55.267Z,17952.00
2018-12-24T10:15:27.029Z,17540.00
2018-12-24T10:18:29.995Z,17132.00
2018-12-24T10:20:01.766Z,17472.00
2018-12-24T10:21:33.133Z,18016.00
2018-12-24T10:23:04.821Z,17440.00
2018-12-24T10:24:36.338Z,17428.00
2018-12-24T10:26:08.185Z,17280.00
2018-12-24T10:27:39.508Z,18144.00
2018-12-24T10:30:43.232Z,23328.00
2018-12-24T10:32:14.676Z,21856.00
2018-12-24T10:33:45.776Z,20224.00
2018-12-24T10:35:17.381Z,19840.00
2018-12-24T10:36:49.572Z,19232.00
2018-12-24T10:38:20.520Z,19328.00
2018-12-24T10:39:52.366Z,18464.00
2018-12-24T10:41:23.671Z,17452.00
2018-12-24T10:44:26.809Z,15952.00
2018-12-24T10:45:58.406Z,16232.00
2018-12-24T10:47:30.291Z,17276.00
2018-12-24T10:49:01.557Z,19680.00
2018-12-24T10:50:33.245Z,24576.00
2018-12-24T10:52:04.720Z,26272.00
2018-12-24T10:56:39.986Z,24736.00
2018-12-24T10:58:11.206Z,25664.00
2018-12-24T10:59:42.883Z,25984.00
2018-12-24T11:01:14.262Z,24480.00
2018-12-24T11:02:45.732Z,23936.00
2018-12-24T11:05:48.888Z,23008.00
2018-12-24T11:08:52.350Z,22688.00
2018-12-24T11:10:23.626Z,22976.00
2018-12-24T11:11:55.696Z,23520.00
2018-12-24T11:13:27.116Z,24096.00
2018-12-24T11:14:58.383Z,27840.00
2018-12-24T11:16:29.992Z,27968.00
2018-12-24T11:19:33.134Z,26432.00
2018-12-24T11:22:37.157Z,23136.00
2018-12-24T11:24:08.080Z,23072.00
2018-12-24T11:25:39.435Z,22112.00
2018-12-24T11:27:10.995Z,22976.00
2018-12-24T11:28:43.139Z,21472.00
2018-12-24T11:30:14.359Z,17492.00
2018-12-24T11:31:45.746Z,13020.00
2018-12-24T11:33:17.315Z,10732.00
2018-12-24T11:34:48.891Z,11872.00
2018-12-24T11:36:20.494Z,15152.00
2018-12-24T11:37:52.107Z,19808.00
2018-12-24T11:39:24.154Z,26080.00
2018-12-24T11:40:55.219Z,24928.00
2018-12-24T11:42:26.840Z,24096.00
2018-12-24T11:43:58.438Z,22752.00
2018-12-24T11:45:33.792Z,20480.00
2018-12-24T11:47:01.624Z,20544.00
2018-12-24T11:48:33.103Z,22848.00
2018-12-24T11:50:04.682Z,23680.00
2018-12-24T11:51:36.267Z,22208.00
2018-12-24T11:54:39.725Z,21088.00
2018-12-24T11:56:11.049Z,21248.00
2018-12-24T11:57:42.714Z,23296.00
2018-12-24T11:59:14.510Z,28288.00
2018-12-24T12:00:45.735Z,29984.00
2018-12-24T12:02:17.326Z,28576.00
2018-12-24T12:03:48.894Z,27488.00
2018-12-24T12:05:20.477Z,27456.00
2018-12-24T12:06:52.153Z,29760.00
2018-12-24T12:08:23.934Z,33856.00
2018-12-24T12:09:55.206Z,40608.00
2018-12-24T12:11:26.808Z,56224.00
2018-12-24T12:14:30.147Z,61536.00
2018-12-24T12:16:01.565Z,53248.00
2018-12-24T12:17:33.188Z,67616.00
2018-12-24T12:19:04.685Z,48000.00
2018-12-24T12:20:36.266Z,47872.00
2018-12-24T12:22:07.847Z,47712.00
2018-12-24T12:23:39.453Z,42816.00
2018-12-24T12:25:11.045Z,39488.00
2018-12-24T12:28:14.873Z,33728.00
2018-12-24T12:29:45.754Z,32960.00
2018-12-24T12:31:17.409Z,33824.00
2018-12-24T12:34:20.509Z,43232.00
2018-12-24T12:35:52.079Z,40128.00
2018-12-24T12:37:23.660Z,33472.00
2018-12-24T12:38:55.246Z,29632.00
2018-12-24T12:41:58.710Z,30208.00
2018-12-24T12:43:30.014Z,35104.00
2018-12-24T12:45:01.622Z,39072.00
2018-12-24T12:46:33.146Z,44160.00
2018-12-24T12:48:05.159Z,43392.00
2018-12-24T12:49:36.308Z,41440.00
2018-12-24T12:52:39.519Z,44160.00
2018-12-24T12:54:11.093Z,47168.00
2018-12-24T12:55:42.636Z,46560.00
2018-12-24T12:57:14.225Z,45376.00
2018-12-24T12:58:45.796Z,44960.00
2018-12-24T13:00:17.394Z,46048.00
2018-12-24T13:01:48.982Z,47968.00
2018-12-24T13:03:20.635Z,49248.00
2018-12-24T13:04:52.121Z,49568.00
2018-12-24T13:09:26.985Z,51232.00
2018-12-24T13:10:58.478Z,57280.00
2018-12-24T13:14:01.610Z,62144.00
2018-12-24T13:15:33.203Z,61792.00
2018-12-24T13:17:04.805Z,60064.00
2018-12-24T13:18:36.890Z,62784.00
2018-12-24T13:20:08.460Z,63776.00
2018-12-24T13:23:11.354Z,58688.00
2018-12-24T13:24:42.799Z,52128.00
2018-12-24T13:26:14.267Z,59424.00
2018-12-24T13:27:45.950Z,58528.00
2018-12-24T13:29:17.565Z,58080.00
2018-12-24T13:30:49.066Z,73408.00
2018-12-24T13:32:20.843Z,57120.00
2018-12-24T13:38:27.142Z,75712.00
2018-12-24T13:39:58.514Z,75680.00
2018-12-24T13:41:30.226Z,79168.00
2018-12-24T13:43:01.989Z,53280.00
2018-12-24T13:44:33.771Z,48832.00
2018-12-24T13:46:08.244Z,60480.00
2018-12-24T13:47:36.738Z,86336.00
2018-12-24T13:50:39.601Z,136064.00
2018-12-24T13:52:11.261Z,86432.00
2018-12-24T13:53:42.784Z,49664.00
2018-12-24T13:55:14.766Z,45056.00
2018-12-24T13:56:46.159Z,41440.00
2018-12-24T13:58:17.654Z,38624.00
2018-12-24T13:59:49.412Z,37472.00
2018-12-24T14:01:20.762Z,39200.00
2018-12-24T14:02:52.377Z,45536.00
2018-12-24T14:04:23.864Z,54496.00
2018-12-24T14:05:55.498Z,98048.00
2018-12-24T14:07:27.565Z,138112.00
2018-12-24T14:08:58.620Z,74880.00
2018-12-24T14:10:30.433Z,76160.00
2018-12-24T14:12:01.779Z,64832.00
2018-12-24T14:13:33.363Z,68864.00
2018-12-24T14:15:05.043Z,56928.00
2018-12-24T14:16:36.593Z,56384.00
2018-12-24T14:18:08.211Z,54112.00
2018-12-24T14:19:39.731Z,48832.00
2018-12-24T14:21:11.382Z,41184.00
2018-12-24T14:22:42.866Z,35200.00
2018-12-24T14:25:46.033Z,30336.00
2018-12-24T14:27:17.923Z,29856.00
2018-12-24T14:28:49.514Z,29248.00
2018-12-24T14:30:20.791Z,28416.00
2018-12-24T14:33:24.214Z,26592.00
2018-12-24T14:34:55.663Z,28032.00
2018-12-24T14:37:58.781Z,26048.00
2018-12-24T14:39:30.378Z,23936.00
2018-12-24T14:41:01.860Z,23296.00
2018-12-24T14:42:33.442Z,22016.00
2018-12-24T14:44:05.114Z,20160.00
2018-12-24T14:45:36.855Z,17304.00
2018-12-24T14:47:08.257Z,15632.00
2018-12-24T14:48:40.146Z,15192.00
2018-12-24T14:50:11.420Z,14752.00
2018-12-24T14:51:43.000Z,14436.00
2018-12-24T14:53:14.578Z,14060.00
2018-12-24T14:54:46.616Z,13944.00
2018-12-24T14:56:17.695Z,13524.00
2018-12-24T14:57:49.712Z,12716.00
2018-12-24T14:59:21.107Z,11612.00
2018-12-24T15:00:52.514Z,11060.00
2018-12-24T15:03:55.671Z,9936.00
2018-12-24T15:05:27.153Z,9792.00
2018-12-24T15:06:58.884Z,9936.00
2018-12-24T15:08:30.509Z,10528.00
2018-12-24T15:10:01.891Z,11640.00
2018-12-24T15:11:33.531Z,13056.00
2018-12-24T15:13:06.031Z,14156.00
2018-12-24T15:14:37.060Z,14896.00
2018-12-24T15:16:08.304Z,15088.00
2018-12-24T15:17:39.835Z,15880.00
2018-12-24T15:19:11.589Z,18196.00
2018-12-24T15:20:43.308Z,20192.00
2018-12-24T15:23:46.130Z,22816.00
2018-12-24T15:25:17.760Z,23712.00
2018-12-24T15:26:49.245Z,24864.00
2018-12-24T15:28:20.867Z,26752.00
2018-12-24T15:29:52.704Z,28768.00
2018-12-24T15:32:55.563Z,31296.00
2018-12-24T15:34:27.234Z,31264.00
2018-12-24T15:35:58.809Z,31328.00
2018-12-24T15:37:30.283Z,31808.00
2018-12-24T15:39:02.369Z,32512.00
2018-12-24T15:40:33.446Z,33344.00
2018-12-24T15:42:05.096Z,34208.00
2018-12-24T15:43:36.714Z,34944.00
2018-12-24T15:45:08.180Z,35904.00
2018-12-24T15:46:42.798Z,36896.00
2018-12-24T15:48:11.412Z,37504.00
2018-12-24T15:49:42.971Z,37408.00
2018-12-24T15:52:46.074Z,36032.00
2018-12-24T15:54:17.832Z,35552.00
2018-12-24T15:55:49.219Z,35680.00
2018-12-24T15:57:20.798Z,36576.00
2018-12-24T16:01:55.533Z,39584.00
2018-12-24T16:03:27.112Z,39776.00
2018-12-24T16:04:58.702Z,38944.00
2018-12-24T16:06:30.475Z,38240.00
2018-12-24T16:08:01.848Z,36992.00
2018-12-24T16:09:33.426Z,37568.00
2018-12-24T16:12:36.584Z,41152.00
2018-12-24T16:14:08.465Z,41088.00
2018-12-24T16:17:11.320Z,41568.00
2018-12-24T16:18:42.899Z,42144.00
2018-12-24T16:20:15.001Z,45152.00
2018-12-24T16:21:46.056Z,41792.00
2018-12-24T16:23:17.634Z,41728.00
2018-12-24T16:26:21.221Z,38016.00
2018-12-24T16:27:52.370Z,34976.00
2018-12-24T16:29:23.974Z,30688.00
2018-12-24T16:30:55.730Z,22400.00
2018-12-24T16:32:27.207Z,15720.00
2018-12-24T16:35:30.266Z,12536.00
2018-12-24T16:37:01.841Z,16752.00
2018-12-24T16:38:33.420Z,25696.00
2018-12-24T16:40:06.136Z,24640.00
2018-12-24T16:41:36.783Z,16624.00
2018-12-24T16:43:08.155Z,12344.00
2018-12-24T16:44:40.036Z,13056.00
2018-12-24T16:46:11.311Z,16892.00
2018-12-24T16:47:42.886Z,17384.00
2018-12-24T16:49:14.465Z,14204.00
2018-12-24T16:53:49.296Z,10576.00
2018-12-24T16:55:20.773Z,6640.00
2018-12-24T16:56:52.349Z,8744.00
2018-12-24T16:58:24.128Z,12800.00
2018-12-24T16:59:56.014Z,18688.00
2018-12-24T17:01:27.079Z,21568.00
2018-12-24T17:04:30.235Z,17000.00
2018-12-24T17:06:01.912Z,15576.00
2018-12-24T17:07:33.383Z,16596.00
2018-12-24T17:09:04.962Z,17580.00
2018-12-24T17:10:36.740Z,17904.00
2018-12-24T17:12:08.212Z,17456.00
2018-12-24T17:13:39.992Z,17460.00
2018-12-24T17:15:11.262Z,22176.00
2018-12-24T17:16:42.850Z,24640.00
2018-12-24T17:18:14.718Z,23168.00
2018-12-24T17:21:17.566Z,22784.00
2018-12-24T17:22:49.141Z,20960.00
2018-12-24T17:24:20.716Z,19168.00
2018-12-24T17:27:23.870Z,20032.00
2018-12-24T17:28:55.647Z,18912.00
2018-12-24T17:30:27.426Z,12932.00
2018-12-24T17:31:58.596Z,14120.00
2018-12-24T17:33:30.173Z,24256.00
2018-12-24T17:36:33.321Z,32352.00
2018-12-24T17:38:04.899Z,36032.00
2018-12-24T17:39:36.472Z,32544.00
2018-12-24T17:41:08.054Z,27648.00
2018-12-24T17:42:39.929Z,35136.00
2018-12-24T17:44:11.200Z,33696.00
2018-12-24T17:47:16.420Z,33408.00
2018-12-24T17:50:17.603Z,32064.00
2018-12-24T17:51:49.079Z,41920.00
2018-12-24T17:53:20.655Z,40800.00
2018-12-24T17:54:52.436Z,30496.00
2018-12-24T17:56:23.809Z,33568.00
2018-12-24T17:57:55.386Z,44352.00
2018-12-24T18:00:58.538Z,44576.00
2018-12-24T18:02:30.114Z,40832.00
2018-12-24T18:04:02.215Z,30368.00
2018-12-24T18:05:33.270Z,31968.00
2018-12-24T18:07:04.848Z,27808.00
2018-12-24T18:08:36.523Z,23808.00
2018-12-24T18:11:39.889Z,16292.00
2018-12-24T18:13:11.156Z,15324.00
2018-12-24T18:14:42.731Z,11608.00
2018-12-24T18:17:46.090Z,18320.00
2018-12-24T18:19:17.462Z,16540.00
2018-12-24T18:20:49.562Z,19872.00
2018-12-24T18:22:20.614Z,20480.00
2018-12-24T18:23:52.189Z,14012.00
2018-12-24T18:25:23.772Z,19424.00
2018-12-24T18:26:55.442Z,17872.00
2018-12-24T18:28:26.919Z,11912.00
2018-12-24T18:29:58.493Z,11164.00
2018-12-24T18:31:30.676Z,10708.00
2018-12-24T18:33:01.644Z,7592.00
2018-12-24T18:34:33.221Z,9456.00
2018-12-24T18:36:04.801Z,8612.00
2018-12-24T18:39:08.150Z,10932.00
2018-12-24T18:40:39.522Z,11208.00
2018-12-24T18:42:11.096Z,11528.00
2018-12-24T18:43:42.671Z,10780.00
2018-12-24T18:45:14.347Z,7312.00
2018-12-24T18:46:45.822Z,6176.00
2018-12-24T18:48:17.400Z,9452.00
2018-12-24T18:49:48.972Z,15440.00
2018-12-24T18:51:20.751Z,11216.00
2018-12-24T18:52:52.124Z,10508.00
2018-12-24T18:54:24.220Z,11768.00
2018-12-24T18:55:55.271Z,11092.00
2018-12-24T18:57:26.846Z,10952.00
2018-12-24T18:58:58.421Z,10680.00
2018-12-24T19:02:01.582Z,12352.00
2018-12-24T19:03:33.247Z,13200.00
2018-12-24T19:05:04.719Z,13908.00
2018-12-24T19:08:07.870Z,15484.00
2018-12-24T19:09:39.955Z,15676.00
2018-12-24T19:11:11.463Z,15964.00
2018-12-24T19:12:42.593Z,16060.00
2018-12-24T19:14:14.168Z,16044.00
2018-12-24T19:15:46.250Z,15728.00
2018-12-24T19:17:17.317Z,15500.00
2018-12-24T19:18:48.892Z,14948.00
2018-12-24T19:20:20.467Z,14180.00
2018-12-24T19:21:52.143Z,13472.00
2018-12-24T19:23:23.623Z,13684.00
2018-12-24T19:24:55.193Z,13876.00
2018-12-24T19:26:27.072Z,12544.00
2018-12-24T19:32:33.066Z,11512.00
2018-12-24T19:34:04.641Z,10488.00
2018-12-24T19:35:36.216Z,11412.00
2018-12-24T19:37:07.795Z,12256.00
2018-12-24T19:38:39.465Z,12460.00
2018-12-24T19:40:10.940Z,13220.00
2018-12-24T19:44:45.975Z,14288.00
2018-12-24T19:46:17.238Z,13768.00
2018-12-24T19:47:50.074Z,14828.00
2018-12-24T19:49:20.387Z,17136.00
2018-12-24T19:52:23.537Z,17852.00
2018-12-24T19:53:55.434Z,17380.00
2018-12-24T19:56:58.466Z,18656.00
2018-12-24T19:58:30.141Z,19680.00
2018-12-24T20:00:01.616Z,20320.00
2018-12-24T20:01:33.194Z,20128.00
2018-12-24T20:03:04.564Z,19360.00
2018-12-24T20:04:36.141Z,18016.00
2018-12-24T20:06:08.325Z,16748.00
2018-12-24T20:07:39.292Z,16520.00
2018-12-24T20:10:42.440Z,16860.00
2018-12-24T20:13:45.591Z,16324.00
2018-12-24T20:15:17.167Z,15692.00
2018-12-24T20:16:49.044Z,15664.00
2018-12-24T20:19:53.022Z,14976.00
2018-12-24T20:21:24.194Z,15224.00
2018-12-24T20:24:27.125Z,15356.00
2018-12-24T20:25:58.194Z,15004.00
2018-12-24T20:27:29.768Z,13736.00
2018-12-24T20:29:01.546Z,13296.00
2018-12-24T20:32:04.997Z,14036.00
2018-12-24T20:33:36.068Z,13036.00
2018-12-24T20:35:07.643Z,11952.00
2018-12-24T20:36:39.220Z,11272.00
2018-12-24T20:38:10.794Z,11376.00
2018-12-24T20:42:45.524Z,10220.00